Time;durP1;ratioP1;P1;durP2;ratioP2;P2;SDS_P1;SDS_P2;PMS_P1;PMS_P2;Temp;Humidity;BMP_temperature;BMP_pressure;BME280_temperature;BME280_humidity;BME280_pressure;Samples;Min_cycle;Max_cycle;Signal;HPM_P1;HPM_P2
2022/09/11 00:01:20;;;;;;;1.42;1.33;;;;;;;;;;5053466;28;20032;-80
2022/09/11 00:03:46;;;;;;;0.20;0.20;;;;;;;;;;5035182;28;20073;-79
2022/09/11 00:06:12;;;;;;;0.20;0.20;;;;;;;;;;5035318;28;20396;-79
2022/09/11 00:08:38;;;;;;;3.53;0.98;;;;;;;;;;5052042;28;20091;-79
2022/09/11 00:11:06;;;;;;;0.20;0.20;;;;;;;;;;5044807;28;20057;-79
2022/09/11 00:13:32;;;;;;;0.20;0.20;;;;;;;;;;5048216;28;20029;-79
2022/09/11 00:15:57;;;;;;;0.20;0.20;;;;;;;;;;5048888;28;20536;-77
2022/09/11 00:18:23;;;;;;;0.20;0.20;;;;;;;;;;5033280;28;20065;-78
2022/09/11 00:20:50;;;;;;;0.20;0.20;;;;;;;;;;5033560;28;20044;-77
2022/09/11 00:23:16;;;;;;;0.10;0.10;;;;;;;;;;5051633;28;20054;-77
2022/09/11 00:25:42;;;;;;;0.20;0.20;;;;;;;;;;5051202;28;20488;-76
2022/09/11 00:28:10;;;;;;;1.95;0.43;;;;;;;;;;5041925;28;20049;-75
2022/09/11 00:30:36;;;;;;;0.15;0.15;;;;;;;;;;5011709;28;20033;-75
2022/09/11 00:33:01;;;;;;;0.90;0.40;;;;;;;;;;5012877;28;20381;-75
2022/09/11 00:35:28;;;;;;;0.20;0.20;;;;;;;;;;5013118;28;20039;-75
2022/09/11 00:37:53;;;;;;;0.10;0.10;;;;;;;;;;5013511;28;20029;-75
2022/09/11 00:40:21;;;;;;;0.20;0.20;;;;;;;;;;5015740;28;20126;-75
2022/09/11 00:42:52;;;;;;;0.15;0.15;;;;;;;;;;5037853;28;20029;-74
2022/09/11 00:45:26;;;;;;;0.20;0.20;;;;;;;;;;5018960;28;20032;-74
2022/09/11 00:47:53;;;;;;;0.45;0.38;;;;;;;;;;5019611;28;20033;-73
2022/09/11 00:50:21;;;;;;;0.20;0.20;;;;;;;;;;5036740;28;20029;-74
2022/09/11 00:52:55;;;;;;;0.22;0.22;;;;;;;;;;5037816;28;20040;-74
2022/09/11 00:55:26;;;;;;;0.20;0.20;;;;;;;;;;5019441;28;20025;-75
2022/09/11 00:57:56;;;;;;;0.20;0.20;;;;;;;;;;5036112;28;20022;-75
2022/09/11 01:00:22;;;;;;;0.20;0.20;;;;;;;;;;5036183;28;20029;-75
2022/09/11 01:02:50;;;;;;;0.20;0.20;;;;;;;;;;5038081;28;20068;-77
2022/09/11 01:05:16;;;;;;;0.40;0.40;;;;;;;;;;5036919;28;20366;-74
2022/09/11 01:07:44;;;;;;;0.20;0.20;;;;;;;;;;5024694;28;20037;-74
2022/09/11 01:10:10;;;;;;;0.20;0.20;;;;;;;;;;5057424;28;20503;-77
2022/09/11 01:12:45;;;;;;;0.20;0.20;;;;;;;;;;5057498;28;20075;-77
2022/09/11 01:15:14;;;;;;;0.32;0.30;;;;;;;;;;5039103;28;20033;-77
2022/09/11 01:17:59;;;;;;;0.20;0.20;;;;;;;;;;5057134;28;20029;-77
2022/09/11 01:20:25;;;;;;;0.20;0.20;;;;;;;;;;5039450;28;20025;-77
2022/09/11 01:23:14;;;;;;;0.20;0.20;;;;;;;;;;5061898;28;20033;-77
2022/09/11 01:25:39;;;;;;;0.10;0.10;;;;;;;;;;5046438;28;20049;-78
2022/09/11 01:28:12;;;;;;;0.20;0.20;;;;;;;;;;5076236;28;20045;-77
2022/09/11 01:30:46;;;;;;;0.30;0.30;;;;;;;;;;5059363;28;20029;-80
2022/09/11 01:33:16;;;;;;;0.20;0.20;;;;;;;;;;5058467;28;20060;-79
2022/09/11 01:35:41;;;;;;;;;;;;;;;;;;5039638;28;20029;-79
2022/09/11 01:38:24;;;;;;;0.45;0.45;;;;;;;;;;5003358;28;19913;-80
2022/09/11 01:40:59;;;;;;;0.20;0.20;;;;;;;;;;5018707;28;20029;-79
2022/09/11 01:43:29;;;;;;;0.20;0.20;;;;;;;;;;5020310;28;20113;-77
2022/09/11 01:45:56;;;;;;;0.20;0.20;;;;;;;;;;5018316;28;20481;-78
2022/09/11 01:48:28;;;;;;;0.40;0.40;;;;;;;;;;5035971;28;20029;-77
2022/09/11 01:50:55;;;;;;;0.20;0.20;;;;;;;;;;5017703;28;20132;-75
2022/09/11 01:53:24;;;;;;;0.10;0.10;;;;;;;;;;5035970;28;20025;-75
2022/09/11 01:55:54;;;;;;;0.28;0.28;;;;;;;;;;5001576;28;20392;-75
2022/09/11 01:58:28;;;;;;;0.20;0.20;;;;;;;;;;5017796;28;20132;-76
2022/09/11 02:01:09;;;;;;;0.20;0.20;;;;;;;;;;5027885;28;20048;-77
2022/09/11 02:03:38;;;;;;;0.22;0.22;;;;;;;;;;5014887;28;20055;-77
2022/09/11 02:06:12;;;;;;;0.20;0.20;;;;;;;;;;5036595;28;20038;-79
2022/09/11 02:08:38;;;;;;;0.20;0.20;;;;;;;;;;5013558;28;20049;-79
2022/09/11 02:11:05;;;;;;;0.20;0.20;;;;;;;;;;5014240;28;20445;-77
2022/09/11 02:13:50;;;;;;;0.32;0.32;;;;;;;;;;5014104;28;20034;-76
2022/09/11 02:16:35;;;;;;;0.10;0.10;;;;;;;;;;4997826;28;20446;-76
2022/09/11 02:19:03;;;;;;;0.20;0.20;;;;;;;;;;5015185;28;20045;-75
2022/09/11 02:21:29;;;;;;;0.20;0.20;;;;;;;;;;5013813;28;20032;-78
2022/09/11 02:23:56;;;;;;;0.20;0.20;;;;;;;;;;5014330;28;20026;-77
2022/09/11 02:26:23;;;;;;;0.35;0.35;;;;;;;;;;5014075;28;20034;-75
2022/09/11 02:28:49;;;;;;;0.30;0.30;;;;;;;;;;5014165;28;20112;-76
2022/09/11 02:31:18;;;;;;;0.10;0.10;;;;;;;;;;5015277;28;20061;-76
2022/09/11 02:33:44;;;;;;;0.20;0.20;;;;;;;;;;5013949;28;20124;-76
2022/09/11 02:36:22;;;;;;;0.20;0.20;;;;;;;;;;5013553;28;20034;-76
2022/09/11 02:38:51;;;;;;;0.13;0.13;;;;;;;;;;5014903;28;20386;-75
2022/09/11 02:41:22;;;;;;;0.30;0.30;;;;;;;;;;5015152;28;20465;-75
2022/09/11 02:43:49;;;;;;;0.20;0.20;;;;;;;;;;5013683;28;20428;-75
2022/09/11 02:46:18;;;;;;;1.65;1.55;;;;;;;;;;5013702;28;20121;-75
2022/09/11 02:48:59;;;;;;;0.20;0.20;;;;;;;;;;5013327;28;20025;-76
2022/09/11 02:51:39;;;;;;;0.20;0.20;;;;;;;;;;5013571;28;20034;-76
2022/09/11 02:54:09;;;;;;;0.28;0.28;;;;;;;;;;5013184;28;20505;-77
2022/09/11 02:56:48;;;;;;;0.60;0.60;;;;;;;;;;5015716;28;20367;-80
2022/09/11 02:59:23;;;;;;;0.20;0.20;;;;;;;;;;5013491;28;20030;-74
2022/09/11 03:01:53;;;;;;;0.20;0.20;;;;;;;;;;4996263;28;20500;-75
2022/09/11 03:04:23;;;;;;;0.20;0.20;;;;;;;;;;5028253;28;20034;-75
2022/09/11 03:06:50;;;;;;;0.20;0.20;;;;;;;;;;5029421;28;20057;-78
2022/09/11 03:09:16;;;;;;;0.20;0.20;;;;;;;;;;5029475;28;20407;-78
2022/09/11 03:11:43;;;;;;;0.20;0.20;;;;;;;;;;5028859;28;20037;-78
2022/09/11 03:14:09;;;;;;;0.20;0.20;;;;;;;;;;5029851;28;20028;-78
2022/09/11 03:16:37;;;;;;;1.15;1.15;;;;;;;;;;5028925;28;20392;-78
2022/09/11 03:19:06;;;;;;;0.20;0.20;;;;;;;;;;5028710;28;20037;-77
2022/09/11 03:21:33;;;;;;;0.20;0.20;;;;;;;;;;5024532;28;20029;-76
2022/09/11 03:24:00;;;;;;;0.20;0.20;;;;;;;;;;5008913;28;20061;-76
2022/09/11 03:26:28;;;;;;;0.28;0.28;;;;;;;;;;5010768;28;20030;-76
2022/09/11 03:28:54;;;;;;;0.20;0.20;;;;;;;;;;5009220;28;20504;-77
2022/09/11 03:31:20;;;;;;;0.40;0.40;;;;;;;;;;5008359;28;20093;-77
2022/09/11 03:33:46;;;;;;;0.20;0.20;;;;;;;;;;5010038;28;20026;-77
2022/09/11 03:36:12;;;;;;;2.40;0.82;;;;;;;;;;5010489;28;20044;-76
2022/09/11 03:38:38;;;;;;;1.30;1.20;;;;;;;;;;5009053;28;20116;-77
2022/09/11 03:41:04;;;;;;;0.20;0.20;;;;;;;;;;5010119;28;20057;-74
2022/09/11 03:43:32;;;;;;;0.30;0.30;;;;;;;;;;5010141;28;20032;-75
2022/09/11 03:45:59;;;;;;;0.22;0.22;;;;;;;;;;5010388;28;20491;-74
2022/09/11 03:48:25;;;;;;;0.20;0.20;;;;;;;;;;5008709;28;20052;-76
2022/09/11 03:50:51;;;;;;;0.20;0.20;;;;;;;;;;5009490;28;20034;-80
2022/09/11 03:53:17;;;;;;;0.20;0.20;;;;;;;;;;5008634;28;20034;-80
2022/09/11 03:55:46;;;;;;;0.20;0.20;;;;;;;;;;5009901;28;20052;-79
2022/09/11 03:58:13;;;;;;;0.22;0.22;;;;;;;;;;5009851;28;20057;-79
2022/09/11 04:00:42;;;;;;;0.30;0.30;;;;;;;;;;5009620;28;20026;-80
2022/09/11 04:03:09;;;;;;;0.20;0.20;;;;;;;;;;5008815;28;20084;-79
2022/09/11 04:05:43;;;;;;;0.20;0.20;;;;;;;;;;5009725;28;20030;-79
2022/09/11 04:08:12;;;;;;;0.20;0.20;;;;;;;;;;5007605;28;20065;-78
2022/09/11 04:10:40;;;;;;;0.20;0.20;;;;;;;;;;5008574;28;20054;-81
2022/09/11 04:13:07;;;;;;;0.20;0.20;;;;;;;;;;5009540;28;20105;-78
2022/09/11 04:15:34;;;;;;;0.20;0.20;;;;;;;;;;5009095;28;20113;-79
2022/09/11 04:18:04;;;;;;;0.20;0.20;;;;;;;;;;5008246;28;20373;-81
2022/09/11 04:20:31;;;;;;;0.30;0.30;;;;;;;;;;5008068;28;20030;-80
2022/09/11 04:22:57;;;;;;;0.20;0.20;;;;;;;;;;4991751;28;20476;-80
2022/09/11 04:25:23;;;;;;;0.20;0.20;;;;;;;;;;5009418;28;20022;-81
2022/09/11 04:27:49;;;;;;;0.40;0.40;;;;;;;;;;5008243;28;20050;-81
2022/09/11 04:30:15;;;;;;;0.25;0.25;;;;;;;;;;5008366;28;20045;-79
2022/09/11 04:32:40;;;;;;;0.20;0.20;;;;;;;;;;5008915;28;20018;-75
2022/09/11 04:35:07;;;;;;;0.20;0.20;;;;;;;;;;5009647;28;20057;-75
2022/09/11 04:37:39;;;;;;;0.20;0.20;;;;;;;;;;5009567;28;20037;-78
2022/09/11 04:40:06;;;;;;;0.22;0.22;;;;;;;;;;5008251;28;20026;-77
2022/09/11 04:42:33;;;;;;;0.10;0.10;;;;;;;;;;5010951;28;20125;-76
2022/09/11 04:44:58;;;;;;;0.20;0.20;;;;;;;;;;5034489;28;20049;-78
2022/09/11 04:47:24;;;;;;;0.30;0.30;;;;;;;;;;5011603;28;20045;-78
2022/09/11 04:49:51;;;;;;;0.20;0.20;;;;;;;;;;5010373;28;20029;-78
2022/09/11 04:52:17;;;;;;;0.20;0.20;;;;;;;;;;5009828;28;20034;-76
2022/09/11 04:54:45;;;;;;;0.10;0.10;;;;;;;;;;4991637;28;20056;-75
2022/09/11 04:57:10;;;;;;;0.15;0.15;;;;;;;;;;5009282;28;20105;-78
2022/09/11 04:59:43;;;;;;;0.20;0.20;;;;;;;;;;5011466;28;20025;-78
2022/09/11 05:02:11;;;;;;;0.22;0.22;;;;;;;;;;5011595;28;20030;-79
2022/09/11 05:04:40;;;;;;;0.20;0.20;;;;;;;;;;5009429;28;20030;-81
2022/09/11 05:07:06;;;;;;;0.17;0.17;;;;;;;;;;5019103;28;20393;-74
2022/09/11 05:09:34;;;;;;;0.20;0.20;;;;;;;;;;4995823;28;20452;-77
2022/09/11 05:12:01;;;;;;;0.20;0.20;;;;;;;;;;5013350;28;20084;-78
2022/09/11 05:14:31;;;;;;;0.20;0.20;;;;;;;;;;5011146;28;20120;-78
2022/09/11 05:16:57;;;;;;;0.20;0.20;;;;;;;;;;5013187;28;20480;-79
2022/09/11 05:19:25;;;;;;;0.20;0.20;;;;;;;;;;5029317;28;20423;-80
2022/09/11 05:21:51;;;;;;;0.20;0.20;;;;;;;;;;5012165;28;20079;-77
2022/09/11 05:24:16;;;;;;;0.20;0.20;;;;;;;;;;5011377;28;20068;-75
2022/09/11 05:26:42;;;;;;;0.30;0.30;;;;;;;;;;5018999;28;20041;-78
2022/09/11 05:29:12;;;;;;;1.08;1.05;;;;;;;;;;5046037;28;20029;-77
2022/09/11 05:32:02;;;;;;;0.20;0.20;;;;;;;;;;5033246;28;20029;-79
2022/09/11 05:34:28;;;;;;;0.20;0.20;;;;;;;;;;5034543;28;20511;-78
2022/09/11 05:36:57;;;;;;;0.20;0.20;;;;;;;;;;5034773;28;20060;-76
2022/09/11 05:39:25;;;;;;;0.20;0.20;;;;;;;;;;5035602;28;20464;-77
2022/09/11 05:41:54;;;;;;;0.20;0.20;;;;;;;;;;5052864;28;20029;-77
2022/09/11 05:44:21;;;;;;;0.20;0.20;;;;;;;;;;5034565;28;20033;-77
2022/09/11 05:46:47;;;;;;;0.20;0.20;;;;;;;;;;5052876;28;20439;-79
2022/09/11 05:49:13;;;;;;;0.30;0.30;;;;;;;;;;5018597;28;20043;-78
2022/09/11 05:51:40;;;;;;;0.20;0.20;;;;;;;;;;5058022;28;20036;-78
2022/09/11 05:54:06;;;;;;;0.20;0.20;;;;;;;;;;5067461;28;20013;-75
2022/09/11 05:56:33;;;;;;;0.20;0.20;;;;;;;;;;5031697;28;20393;-75
2022/09/11 05:59:02;;;;;;;0.30;0.30;;;;;;;;;;5025931;28;20028;-76
2022/09/11 06:01:35;;;;;;;0.20;0.20;;;;;;;;;;5035007;28;20025;-75
2022/09/11 06:04:11;;;;;;;0.30;0.30;;;;;;;;;;5034479;28;20403;-76
2022/09/11 06:06:39;;;;;;;0.43;0.43;;;;;;;;;;5033805;28;20049;-76
2022/09/11 06:09:05;;;;;;;0.20;0.20;;;;;;;;;;5026597;28;20124;-75
2022/09/11 06:11:31;;;;;;;0.20;0.20;;;;;;;;;;5014114;28;20029;-75
2022/09/11 06:13:57;;;;;;;0.43;0.43;;;;;;;;;;5014370;28;20053;-75
2022/09/11 06:16:24;;;;;;;0.20;0.20;;;;;;;;;;5031837;28;20021;-75
2022/09/11 06:18:53;;;;;;;0.30;0.30;;;;;;;;;;5014205;28;20542;-75
2022/09/11 06:21:21;;;;;;;0.20;0.20;;;;;;;;;;5014190;28;20116;-74
2022/09/11 06:23:57;;;;;;;0.28;0.28;;;;;;;;;;5015255;28;20021;-75
2022/09/11 06:26:24;;;;;;;0.20;0.20;;;;;;;;;;5013547;28;20548;-75
2022/09/11 06:28:52;;;;;;;0.20;0.20;;;;;;;;;;5013624;28;20029;-75
2022/09/11 06:31:20;;;;;;;0.20;0.20;;;;;;;;;;5031741;28;20465;-76
2022/09/11 06:33:46;;;;;;;0.55;0.55;;;;;;;;;;5013313;28;20056;-75
2022/09/11 06:36:13;;;;;;;1.60;1.50;;;;;;;;;;5013682;28;20423;-81
2022/09/11 06:38:38;;;;;;;0.25;0.25;;;;;;;;;;5013166;28;20530;-77
2022/09/11 06:41:09;;;;;;;0.30;0.30;;;;;;;;;;5005960;28;20036;-77
2022/09/11 06:43:35;;;;;;;0.43;0.40;;;;;;;;;;5033369;28;20061;-77
2022/09/11 06:46:05;;;;;;;0.30;0.30;;;;;;;;;;5026581;28;20068;-77
2022/09/11 06:48:32;;;;;;;0.20;0.20;;;;;;;;;;5013433;28;20048;-76
2022/09/11 06:51:03;;;;;;;0.30;0.30;;;;;;;;;;5013815;28;20033;-77
2022/09/11 06:53:31;;;;;;;0.20;0.20;;;;;;;;;;5013581;28;20025;-79
2022/09/11 06:56:00;;;;;;;0.28;0.28;;;;;;;;;;5022752;28;20091;-72
2022/09/11 06:58:28;;;;;;;0.20;0.20;;;;;;;;;;5025987;28;20369;-77
2022/09/11 07:01:05;;;;;;;0.20;0.20;;;;;;;;;;5030478;28;20031;-82
2022/09/11 07:03:32;;;;;;;0.20;0.20;;;;;;;;;;5013668;28;20025;-81
2022/09/11 07:06:00;;;;;;;0.20;0.20;;;;;;;;;;5031542;28;20044;-78
2022/09/11 07:08:25;;;;;;;0.40;0.40;;;;;;;;;;5010505;28;20061;-77
2022/09/11 07:10:52;;;;;;;0.20;0.20;;;;;;;;;;5009966;28;20029;-76
2022/09/11 07:13:18;;;;;;;0.20;0.20;;;;;;;;;;5011486;28;20375;-79
2022/09/11 07:15:48;;;;;;;0.20;0.20;;;;;;;;;;5009689;28;20054;-76
2022/09/11 07:18:15;;;;;;;0.20;0.20;;;;;;;;;;5009856;28;20072;-75
2022/09/11 07:20:40;;;;;;;0.22;0.22;;;;;;;;;;5011214;28;20072;-76
2022/09/11 07:23:07;;;;;;;0.30;0.30;;;;;;;;;;5011785;28;20037;-76
2022/09/11 07:25:34;;;;;;;0.30;0.30;;;;;;;;;;4994046;28;20045;-79
2022/09/11 07:28:01;;;;;;;0.20;0.20;;;;;;;;;;5009621;28;20038;-78
2022/09/11 07:30:26;;;;;;;0.40;0.40;;;;;;;;;;5010785;28;20041;-79
2022/09/11 07:32:54;;;;;;;3.42;0.98;;;;;;;;;;5013501;28;20150;-81
2022/09/11 07:35:20;;;;;;;0.20;0.20;;;;;;;;;;5021444;28;20214;-78
2022/09/11 07:37:48;;;;;;;0.25;0.25;;;;;;;;;;5028784;28;20476;-78
2022/09/11 07:40:15;;;;;;;0.20;0.20;;;;;;;;;;5028958;28;20036;-77
2022/09/11 07:42:41;;;;;;;0.32;0.32;;;;;;;;;;5012365;28;20112;-76
2022/09/11 07:45:07;;;;;;;1.65;1.20;;;;;;;;;;5028937;28;20163;-78
2022/09/11 07:47:33;;;;;;;0.30;0.30;;;;;;;;;;5028463;28;20033;-78
2022/09/11 07:49:59;;;;;;;0.30;0.30;;;;;;;;;;5029368;28;20059;-75
2022/09/11 07:52:25;;;;;;;0.30;0.30;;;;;;;;;;5029964;28;20457;-75
2022/09/11 07:54:56;;;;;;;0.20;0.20;;;;;;;;;;5028700;28;20065;-74
2022/09/11 07:57:26;;;;;;;0.30;0.30;;;;;;;;;;5029021;28;20455;-75
2022/09/11 07:59:53;;;;;;;0.20;0.20;;;;;;;;;;5028870;28;20072;-76
2022/09/11 08:02:19;;;;;;;0.20;0.20;;;;;;;;;;5028735;28;20410;-74
2022/09/11 08:04:46;;;;;;;0.30;0.30;;;;;;;;;;5028597;28;20030;-75
2022/09/11 08:07:11;;;;;;;0.30;0.30;;;;;;;;;;5011869;28;20057;-75
2022/09/11 08:09:37;;;;;;;0.30;0.30;;;;;;;;;;5028441;28;20112;-75
2022/09/11 08:12:05;;;;;;;0.82;0.82;;;;;;;;;;5028499;28;20053;-75
2022/09/11 08:14:34;;;;;;;;;;;;;;;;;;5007103;28;20116;-76
2022/09/11 08:17:06;;;;;;;1.00;1.00;;;;;;;;;;5012373;28;20188;-77
2022/09/11 08:19:35;;;;;;;0.30;0.30;;;;;;;;;;5012358;28;20041;-75
2022/09/11 08:22:01;;;;;;;0.30;0.30;;;;;;;;;;5009925;28;20053;-75
2022/09/11 08:24:32;;;;;;;0.30;0.30;;;;;;;;;;5027735;28;20026;-75
2022/09/11 08:26:59;;;;;;;0.30;0.30;;;;;;;;;;5027620;28;20033;-75
2022/09/11 08:29:26;;;;;;;0.30;0.30;;;;;;;;;;5024693;28;20041;-75
2022/09/11 08:31:52;;;;;;;0.30;0.30;;;;;;;;;;5024676;28;20041;-76
2022/09/11 08:34:20;;;;;;;0.35;0.35;;;;;;;;;;5026229;28;20072;-76
2022/09/11 08:36:46;;;;;;;3.75;2.83;;;;;;;;;;5026165;28;20025;-75
2022/09/11 08:39:11;;;;;;;0.30;0.30;;;;;;;;;;5025836;28;20034;-76
2022/09/11 08:42:15;;;;;;;0.40;0.40;;;;;;;;;;5023980;28;20597;-75
2022/09/11 08:44:47;;;;;;;0.22;0.22;;;;;;;;;;4976644;28;20097;-75
2022/09/11 08:47:35;;;;;;;0.30;0.30;;;;;;;;;;5022217;28;20037;-76
2022/09/11 08:50:11;;;;;;;0.40;0.40;;;;;;;;;;5024666;28;20030;-75
2022/09/11 08:52:37;;;;;;;1.95;0.50;;;;;;;;;;5023651;28;20033;-75
2022/09/11 08:55:16;;;;;;;0.40;0.40;;;;;;;;;;5022711;28;20034;-76
2022/09/11 08:57:53;;;;;;;0.30;0.30;;;;;;;;;;5018265;28;20037;-76
2022/09/11 09:00:25;;;;;;;0.40;0.40;;;;;;;;;;5027411;28;20025;-76
2022/09/11 09:03:12;;;;;;;0.40;0.40;;;;;;;;;;5011304;28;20037;-76
2022/09/11 09:05:54;;;;;;;0.30;0.30;;;;;;;;;;5020701;28;20443;-75
2022/09/11 09:08:34;;;;;;;0.32;0.32;;;;;;;;;;5045169;28;20057;-75
2022/09/11 09:10:59;;;;;;;0.40;0.40;;;;;;;;;;5050937;28;20025;-76
2022/09/11 09:13:44;;;;;;;0.40;0.40;;;;;;;;;;5016070;28;20032;-76
2022/09/11 09:16:22;;;;;;;7.72;6.43;;;;;;;;;;5011413;28;20128;-76
2022/09/11 09:18:49;;;;;;;0.30;0.30;;;;;;;;;;5029127;28;20031;-75
2022/09/11 09:21:23;;;;;;;0.35;0.35;;;;;;;;;;5012716;28;20111;-76
2022/09/11 09:23:56;;;;;;;0.40;0.40;;;;;;;;;;5011325;28;20040;-75
2022/09/11 09:26:25;;;;;;;0.22;0.22;;;;;;;;;;5016345;28;20044;-75
2022/09/11 09:28:53;;;;;;;1.45;0.55;;;;;;;;;;5032644;28;20037;-75
2022/09/11 09:31:19;;;;;;;;;;;;;;;;;;5029212;28;20067;-77
2022/09/11 09:33:49;;;;;;;0.32;0.32;;;;;;;;;;5028225;28;20000;-76
2022/09/11 09:36:15;;;;;;;0.30;0.30;;;;;;;;;;5047112;28;20028;-76
2022/09/11 09:38:42;;;;;;;0.30;0.30;;;;;;;;;;5051839;28;20110;-76
2022/09/11 09:41:26;;;;;;;0.40;0.40;;;;;;;;;;5038950;28;20069;-77
2022/09/11 09:44:22;;;;;;;0.40;0.40;;;;;;;;;;5008280;28;20044;-75
2022/09/11 09:46:51;;;;;;;0.32;0.32;;;;;;;;;;5012004;28;20045;-76
2022/09/11 09:49:27;;;;;;;0.40;0.40;;;;;;;;;;5017265;28;20537;-77
2022/09/11 09:51:54;;;;;;;0.40;0.40;;;;;;;;;;5020334;28;20465;-77
2022/09/11 09:54:22;;;;;;;0.47;0.47;;;;;;;;;;5012616;28;20034;-76
2022/09/11 09:56:55;;;;;;;0.30;0.30;;;;;;;;;;5012178;28;20025;-75
2022/09/11 09:59:33;;;;;;;0.30;0.30;;;;;;;;;;5022934;28;20029;-75
2022/09/11 10:01:58;;;;;;;0.68;0.68;;;;;;;;;;5000804;28;20480;-76
2022/09/11 10:04:25;;;;;;;3.13;1.02;;;;;;;;;;5012892;28;20102;-76
2022/09/11 10:06:52;;;;;;;0.40;0.40;;;;;;;;;;5030093;28;20049;-76
2022/09/11 10:09:20;;;;;;;0.40;0.40;;;;;;;;;;5012031;28;20061;-76
2022/09/11 10:11:50;;;;;;;0.40;0.40;;;;;;;;;;5022210;28;20033;-77
2022/09/11 10:14:20;;;;;;;0.68;0.68;;;;;;;;;;5011929;28;20354;-74
2022/09/11 10:16:52;;;;;;;0.50;0.50;;;;;;;;;;5012665;28;20415;-75
2022/09/11 10:19:41;;;;;;;0.40;0.40;;;;;;;;;;5015540;28;20057;-76
2022/09/11 10:22:29;;;;;;;0.50;0.50;;;;;;;;;;5049511;28;20092;-76
2022/09/11 10:24:57;;;;;;;0.40;0.40;;;;;;;;;;5047800;28;20040;-77
2022/09/11 10:27:23;;;;;;;0.40;0.40;;;;;;;;;;5068011;28;20026;-77
2022/09/11 10:29:53;;;;;;;0.40;0.40;;;;;;;;;;5048611;28;20395;-77
2022/09/11 10:32:19;;;;;;;0.40;0.40;;;;;;;;;;5052237;28;20547;-78
2022/09/11 10:34:45;;;;;;;0.45;0.45;;;;;;;;;;5048289;28;20036;-77
2022/09/11 10:37:12;;;;;;;0.40;0.40;;;;;;;;;;5029198;28;20480;-78
2022/09/11 10:39:40;;;;;;;0.50;0.50;;;;;;;;;;5029115;28;20052;-77
2022/09/11 10:42:20;;;;;;;0.30;0.30;;;;;;;;;;5029702;28;20029;-77
2022/09/11 10:44:48;;;;;;;0.40;0.40;;;;;;;;;;5047651;28;20029;-76
2022/09/11 10:47:19;;;;;;;0.38;0.38;;;;;;;;;;5049266;28;20059;-76
2022/09/11 10:49:46;;;;;;;0.40;0.40;;;;;;;;;;5050497;28;20025;-77
2022/09/11 10:52:11;;;;;;;0.40;0.40;;;;;;;;;;5050829;28;20029;-76
2022/09/11 10:54:56;;;;;;;0.47;0.47;;;;;;;;;;5049811;28;20029;-77
2022/09/11 10:57:27;;;;;;;0.50;0.50;;;;;;;;;;5033386;28;20040;-77
2022/09/11 10:59:54;;;;;;;0.45;0.45;;;;;;;;;;5051153;28;20062;-78
2022/09/11 11:02:27;;;;;;;0.52;0.50;;;;;;;;;;5032782;28;20426;-76
2022/09/11 11:04:53;;;;;;;0.40;0.40;;;;;;;;;;5050028;28;20020;-78
2022/09/11 11:07:22;;;;;;;0.40;0.40;;;;;;;;;;5048637;28;20049;-77
2022/09/11 11:09:54;;;;;;;0.50;0.50;;;;;;;;;;5032838;28;20530;-79
2022/09/11 11:12:19;;;;;;;0.40;0.40;;;;;;;;;;5016629;28;20032;-78
2022/09/11 11:15:08;;;;;;;0.38;0.38;;;;;;;;;;5032677;28;20442;-78
2022/09/11 11:18:00;;;;;;;0.80;0.80;;;;;;;;;;5033016;28;20029;-77
2022/09/11 11:20:44;;;;;;;0.40;0.40;;;;;;;;;;5019714;28;20115;-77
2022/09/11 11:23:19;;;;;;;0.43;0.43;;;;;;;;;;5049924;28;20431;-77
2022/09/11 11:25:45;;;;;;;0.70;0.60;;;;;;;;;;5049982;28;20025;-76
2022/09/11 11:28:35;;;;;;;0.40;0.40;;;;;;;;;;5050407;28;20391;-76
2022/09/11 11:31:16;;;;;;;0.55;0.55;;;;;;;;;;5050901;28;20028;-77
2022/09/11 11:34:01;;;;;;;0.50;0.50;;;;;;;;;;5049857;28;20063;-78
2022/09/11 11:36:33;;;;;;;0.40;0.40;;;;;;;;;;5050278;28;20029;-75
2022/09/11 11:39:25;;;;;;;0.50;0.50;;;;;;;;;;5032288;28;20508;-76
2022/09/11 11:41:59;;;;;;;0.40;0.40;;;;;;;;;;5045509;28;20103;-75
2022/09/11 11:44:32;;;;;;;0.40;0.40;;;;;;;;;;5047971;28;20025;-76
2022/09/11 11:47:00;;;;;;;0.40;0.40;;;;;;;;;;5031690;28;20036;-76
2022/09/11 11:49:38;;;;;;;0.50;0.50;;;;;;;;;;5034555;28;20025;-77
2022/09/11 11:52:12;;;;;;;0.63;0.63;;;;;;;;;;5000078;28;20060;-77
2022/09/11 11:54:40;;;;;;;0.50;0.50;;;;;;;;;;5016662;28;20124;-77
2022/09/11 11:57:12;;;;;;;0.52;0.52;;;;;;;;;;5046647;28;20029;-77
2022/09/11 11:59:39;;;;;;;0.40;0.40;;;;;;;;;;5019068;28;20080;-77
2022/09/11 12:02:07;;;;;;;0.40;0.40;;;;;;;;;;5011000;28;20033;-77
2022/09/11 12:04:41;;;;;;;0.50;0.50;;;;;;;;;;5046556;28;20045;-78
2022/09/11 12:07:25;;;;;;;0.50;0.50;;;;;;;;;;5023133;28;20733;-77
2022/09/11 12:09:56;;;;;;;0.52;0.52;;;;;;;;;;5040122;28;20033;-76
2022/09/11 12:12:23;;;;;;;0.50;0.50;;;;;;;;;;5028190;28;20029;-76
2022/09/11 12:14:49;;;;;;;0.40;0.40;;;;;;;;;;5018019;28;20033;-77
2022/09/11 12:17:24;;;;;;;0.50;0.50;;;;;;;;;;5026446;28;20065;-77
2022/09/11 12:20:10;;;;;;;0.50;0.50;;;;;;;;;;5023071;28;20041;-75
2022/09/11 12:22:38;;;;;;;0.50;0.50;;;;;;;;;;5016384;28;20069;-78
2022/09/11 12:25:24;;;;;;;0.50;0.50;;;;;;;;;;5033294;28;20033;-78
2022/09/11 12:27:51;;;;;;;0.40;0.40;;;;;;;;;;5014182;28;20440;-79
2022/09/11 12:30:17;;;;;;;0.57;0.57;;;;;;;;;;5028755;28;20112;-78
2022/09/11 12:32:46;;;;;;;1.52;0.68;;;;;;;;;;5030016;28;20591;-80
2022/09/11 12:35:14;;;;;;;3.40;3.17;;;;;;;;;;5043182;28;20071;-79
2022/09/11 12:37:40;;;;;;;0.60;0.60;;;;;;;;;;5037151;28;20423;-78
2022/09/11 12:40:19;;;;;;;0.43;0.43;;;;;;;;;;5033869;28;20033;-77
2022/09/11 12:42:47;;;;;;;0.40;0.40;;;;;;;;;;5041516;28;20116;-77
2022/09/11 12:45:33;;;;;;;0.40;0.40;;;;;;;;;;5015975;28;20026;-79
2022/09/11 12:48:12;;;;;;;0.50;0.50;;;;;;;;;;5040254;28;20048;-78
2022/09/11 12:50:39;;;;;;;1.45;1.35;;;;;;;;;;5043849;28;20078;-78
2022/09/11 12:53:07;;;;;;;0.50;0.50;;;;;;;;;;5039422;28;20057;-78
2022/09/11 12:55:38;;;;;;;0.40;0.40;;;;;;;;;;5004025;28;20025;-78
2022/09/11 12:58:05;;;;;;;0.80;0.80;;;;;;;;;;5037207;28;20057;-81
2022/09/11 13:00:37;;;;;;;1.02;0.82;;;;;;;;;;5018662;28;20047;-79
2022/09/11 13:03:03;;;;;;;2.60;0.50;;;;;;;;;;5023643;28;20025;-80
2022/09/11 13:05:35;;;;;;;1.65;0.88;;;;;;;;;;5039322;28;20094;-77
2022/09/11 13:08:03;;;;;;;0.52;0.50;;;;;;;;;;5050886;28;20093;-78
2022/09/11 13:10:35;;;;;;;2.08;1.05;;;;;;;;;;5041845;28;20063;-78
2022/09/11 13:13:25;;;;;;;2.55;2.08;;;;;;;;;;5008455;28;20035;-77
2022/09/11 13:15:56;;;;;;;3.85;0.85;;;;;;;;;;5031008;28;20029;-80
2022/09/11 13:18:28;;;;;;;6.53;1.13;;;;;;;;;;5015003;28;20034;-81
2022/09/11 13:21:00;;;;;;;5.93;1.50;;;;;;;;;;5033490;28;20083;-79
2022/09/11 13:23:26;;;;;;;0.60;0.60;;;;;;;;;;5050350;28;20087;-78
2022/09/11 13:25:54;;;;;;;0.70;0.70;;;;;;;;;;5032225;28;20063;-77
2022/09/11 13:28:20;;;;;;;0.40;0.40;;;;;;;;;;5031970;28;20120;-79
2022/09/11 13:30:54;;;;;;;0.43;0.40;;;;;;;;;;5032481;28;20115;-80
2022/09/11 13:33:22;;;;;;;0.90;0.60;;;;;;;;;;5016410;28;20036;-82
2022/09/11 13:35:48;;;;;;;1.20;0.63;;;;;;;;;;5016581;28;20032;-82
2022/09/11 13:38:17;;;;;;;0.57;0.57;;;;;;;;;;5050991;28;20041;-82
2022/09/11 13:40:59;;;;;;;5.80;1.10;;;;;;;;;;5050941;28;20472;-79
2022/09/11 13:43:34;;;;;;;0.30;0.30;;;;;;;;;;5050535;28;20472;-81
2022/09/11 13:46:15;;;;;;;0.63;0.45;;;;;;;;;;5048308;28;20033;-81
2022/09/11 13:48:42;;;;;;;2.17;1.00;;;;;;;;;;5031158;28;20061;-81
2022/09/11 13:51:12;;;;;;;7.18;1.42;;;;;;;;;;5048914;28;20037;-78
2022/09/11 13:53:37;;;;;;;1.50;0.80;;;;;;;;;;5019795;28;20287;-80
2022/09/11 13:56:03;;;;;;;5.25;1.23;;;;;;;;;;5011406;28;20034;-79
2022/09/11 13:58:35;;;;;;;1.50;0.60;;;;;;;;;;5029913;28;20496;-76
2022/09/11 14:01:10;;;;;;;1.95;0.70;;;;;;;;;;5012329;28;20503;-78
2022/09/11 14:03:37;;;;;;;6.38;1.63;;;;;;;;;;4995789;28;20040;-75
2022/09/11 14:06:08;;;;;;;6.75;1.40;;;;;;;;;;5011539;28;20457;-76
2022/09/11 14:08:35;;;;;;;5.13;0.93;;;;;;;;;;5030393;28;20056;-78
2022/09/11 14:11:03;;;;;;;5.07;1.65;;;;;;;;;;5034008;28;20107;-77
2022/09/11 14:13:32;;;;;;;0.32;0.32;;;;;;;;;;5038950;28;20025;-77
2022/09/11 14:16:03;;;;;;;8.68;1.08;;;;;;;;;;5011629;28;20036;-76
2022/09/11 14:18:40;;;;;;;4.97;1.10;;;;;;;;;;5011401;28;20044;-76
2022/09/11 14:21:23;;;;;;;3.53;1.05;;;;;;;;;;5011571;28;20103;-78
2022/09/11 14:23:58;;;;;;;1.55;0.75;;;;;;;;;;5028987;28;20034;-76
2022/09/11 14:26:38;;;;;;;2.25;1.05;;;;;;;;;;5012279;28;20679;-77
2022/09/11 14:29:11;;;;;;;3.33;1.30;;;;;;;;;;5011133;28;20048;-76
2022/09/11 14:31:38;;;;;;;2.75;1.13;;;;;;;;;;5029069;28;20033;-78
2022/09/11 14:34:11;;;;;;;3.50;0.82;;;;;;;;;;5020561;28;20033;-77
2022/09/11 14:36:39;;;;;;;1.17;0.60;;;;;;;;;;5028960;28;20033;-78
2022/09/11 14:39:05;;;;;;;11.98;2.00;;;;;;;;;;4995491;28;20040;-77
2022/09/11 14:41:30;;;;;;;5.90;0.70;;;;;;;;;;5027792;28;20076;-79
2022/09/11 14:43:57;;;;;;;8.55;1.08;;;;;;;;;;5032011;28;20041;-77
2022/09/11 14:46:23;;;;;;;0.47;0.38;;;;;;;;;;4999800;28;20120;-76
2022/09/11 14:48:48;;;;;;;2.42;0.88;;;;;;;;;;5008867;28;20132;-78
2022/09/11 14:51:14;;;;;;;2.13;0.85;;;;;;;;;;5009333;28;20014;-78
2022/09/11 14:53:41;;;;;;;5.28;0.85;;;;;;;;;;5031666;28;20026;-75
2022/09/11 14:56:08;;;;;;;5.28;1.00;;;;;;;;;;5027438;28;20033;-75
2022/09/11 14:58:33;;;;;;;1.55;0.57;;;;;;;;;;5027744;28;20013;-75
2022/09/11 15:00:59;;;;;;;3.70;1.00;;;;;;;;;;5010856;28;20531;-74